sensor_id;sensor_type;location;lat;lon;timestamp;P1;durP1;ratioP1;P2;durP2;ratioP2
609;SDS011;292;48.800;9.216;2023-11-22T00:00:36;14.77;;;6.72;;
609;SDS011;292;48.800;9.216;2023-11-22T00:03:03;9.07;;;4.93;;
609;SDS011;292;48.800;9.216;2023-11-22T00:05:30;5.97;;;3.00;;
609;SDS011;292;48.800;9.216;2023-11-22T00:07:57;3.55;;;2.30;;
609;SDS011;292;48.800;9.216;2023-11-22T00:10:24;3.45;;;2.30;;
609;SDS011;292;48.800;9.216;2023-11-22T00:12:53;4.13;;;2.45;;
609;SDS011;292;48.800;9.216;2023-11-22T00:15:20;5.55;;;2.88;;
609;SDS011;292;48.800;9.216;2023-11-22T00:17:47;2.70;;;2.13;;
609;SDS011;292;48.800;9.216;2023-11-22T00:20:14;2.95;;;2.17;;
609;SDS011;292;48.800;9.216;2023-11-22T00:22:42;3.47;;;2.28;;
609;SDS011;292;48.800;9.216;2023-11-22T00:25:10;5.55;;;3.50;;
609;SDS011;292;48.800;9.216;2023-11-22T00:27:38;4.50;;;3.20;;
609;SDS011;292;48.800;9.216;2023-11-22T00:30:07;5.50;;;3.15;;
609;SDS011;292;48.800;9.216;2023-11-22T00:32:35;4.80;;;3.13;;
609;SDS011;292;48.800;9.216;2023-11-22T00:35:03;5.15;;;2.95;;
609;SDS011;292;48.800;9.216;2023-11-22T00:37:30;4.05;;;2.75;;
609;SDS011;292;48.800;9.216;2023-11-22T00:39:57;4.90;;;2.97;;
609;SDS011;292;48.800;9.216;2023-11-22T00:42:25;6.13;;;3.55;;
609;SDS011;292;48.800;9.216;2023-11-22T00:44:53;5.97;;;3.30;;
609;SDS011;292;48.800;9.216;2023-11-22T00:47:24;5.28;;;3.35;;
609;SDS011;292;48.800;9.216;2023-11-22T00:49:52;5.35;;;3.60;;
609;SDS011;292;48.800;9.216;2023-11-22T00:52:18;7.05;;;4.00;;
609;SDS011;292;48.800;9.216;2023-11-22T00:54:46;5.60;;;3.33;;
609;SDS011;292;48.800;9.216;2023-11-22T00:57:13;7.38;;;3.60;;
609;SDS011;292;48.800;9.216;2023-11-22T00:59:40;8.52;;;4.18;;
609;SDS011;292;48.800;9.216;2023-11-22T01:02:06;8.25;;;4.07;;
609;SDS011;292;48.800;9.216;2023-11-22T01:04:35;7.40;;;4.03;;
609;SDS011;292;48.800;9.216;2023-11-22T01:07:03;7.10;;;4.30;;
609;SDS011;292;48.800;9.216;2023-11-22T01:09:30;6.95;;;3.70;;
609;SDS011;292;48.800;9.216;2023-11-22T01:11:58;5.80;;;3.40;;
609;SDS011;292;48.800;9.216;2023-11-22T01:14:25;9.98;;;4.28;;
609;SDS011;292;48.800;9.216;2023-11-22T01:16:52;5.60;;;3.40;;
609;SDS011;292;48.800;9.216;2023-11-22T01:19:20;7.35;;;4.13;;
609;SDS011;292;48.800;9.216;2023-11-22T01:21:48;7.32;;;3.88;;
609;SDS011;292;48.800;9.216;2023-11-22T01:24:15;6.53;;;4.10;;
609;SDS011;292;48.800;9.216;2023-11-22T01:26:42;7.88;;;3.67;;
609;SDS011;292;48.800;9.216;2023-11-22T01:29:11;7.07;;;3.88;;
609;SDS011;292;48.800;9.216;2023-11-22T01:31:38;7.18;;;3.60;;
609;SDS011;292;48.800;9.216;2023-11-22T01:34:07;6.15;;;3.80;;
609;SDS011;292;48.800;9.216;2023-11-22T01:36:34;5.22;;;3.80;;
609;SDS011;292;48.800;9.216;2023-11-22T01:39:03;6.25;;;3.97;;
609;SDS011;292;48.800;9.216;2023-11-22T01:41:31;5.28;;;3.42;;
609;SDS011;292;48.800;9.216;2023-11-22T01:43:59;6.22;;;3.58;;
609;SDS011;292;48.800;9.216;2023-11-22T01:46:27;8.25;;;3.40;;
609;SDS011;292;48.800;9.216;2023-11-22T01:48:54;7.78;;;3.67;;
609;SDS011;292;48.800;9.216;2023-11-22T01:51:22;5.15;;;3.30;;
609;SDS011;292;48.800;9.216;2023-11-22T01:53:51;5.90;;;3.25;;
609;SDS011;292;48.800;9.216;2023-11-22T01:56:24;5.75;;;3.22;;
609;SDS011;292;48.800;9.216;2023-11-22T01:58:52;5.32;;;3.40;;
609;SDS011;292;48.800;9.216;2023-11-22T02:01:21;10.93;;;3.45;;
609;SDS011;292;48.800;9.216;2023-11-22T02:03:48;6.40;;;3.10;;
609;SDS011;292;48.800;9.216;2023-11-22T02:06:17;4.85;;;2.60;;
609;SDS011;292;48.800;9.216;2023-11-22T02:08:44;4.10;;;2.80;;
609;SDS011;292;48.800;9.216;2023-11-22T02:11:11;5.13;;;3.45;;
609;SDS011;292;48.800;9.216;2023-11-22T02:13:40;3.70;;;2.50;;
609;SDS011;292;48.800;9.216;2023-11-22T02:16:07;4.18;;;2.72;;
609;SDS011;292;48.800;9.216;2023-11-22T02:18:34;4.75;;;3.13;;
609;SDS011;292;48.800;9.216;2023-11-22T02:21:02;4.70;;;2.80;;
609;SDS011;292;48.800;9.216;2023-11-22T02:23:30;6.63;;;3.50;;
609;SDS011;292;48.800;9.216;2023-11-22T02:25:57;4.18;;;2.65;;
609;SDS011;292;48.800;9.216;2023-11-22T02:28:25;5.88;;;3.58;;
609;SDS011;292;48.800;9.216;2023-11-22T02:30:52;4.85;;;3.00;;
609;SDS011;292;48.800;9.216;2023-11-22T02:33:20;5.15;;;2.92;;
609;SDS011;292;48.800;9.216;2023-11-22T02:35:47;7.13;;;4.07;;
609;SDS011;292;48.800;9.216;2023-11-22T02:38:15;8.15;;;3.33;;
609;SDS011;292;48.800;9.216;2023-11-22T02:40:44;5.75;;;3.40;;
609;SDS011;292;48.800;9.216;2023-11-22T02:43:12;5.70;;;3.03;;
609;SDS011;292;48.800;9.216;2023-11-22T02:45:39;6.20;;;3.42;;
609;SDS011;292;48.800;9.216;2023-11-22T02:48:06;9.30;;;3.70;;
609;SDS011;292;48.800;9.216;2023-11-22T02:50:34;5.78;;;3.17;;
609;SDS011;292;48.800;9.216;2023-11-22T02:53:03;6.50;;;3.70;;
609;SDS011;292;48.800;9.216;2023-11-22T02:55:30;5.00;;;2.83;;
609;SDS011;292;48.800;9.216;2023-11-22T02:57:59;6.88;;;2.80;;
609;SDS011;292;48.800;9.216;2023-11-22T03:00:27;5.75;;;3.40;;
609;SDS011;292;48.800;9.216;2023-11-22T03:02:54;4.60;;;2.88;;
609;SDS011;292;48.800;9.216;2023-11-22T03:05:21;5.63;;;2.75;;
609;SDS011;292;48.800;9.216;2023-11-22T03:07:49;5.65;;;2.92;;
609;SDS011;292;48.800;9.216;2023-11-22T03:10:16;6.30;;;3.10;;
609;SDS011;292;48.800;9.216;2023-11-22T03:12:44;6.93;;;3.47;;
609;SDS011;292;48.800;9.216;2023-11-22T03:15:12;4.53;;;2.65;;
609;SDS011;292;48.800;9.216;2023-11-22T03:17:40;6.18;;;3.42;;
609;SDS011;292;48.800;9.216;2023-11-22T03:20:08;6.85;;;3.70;;
609;SDS011;292;48.800;9.216;2023-11-22T03:22:36;6.05;;;3.25;;
609;SDS011;292;48.800;9.216;2023-11-22T03:25:04;6.40;;;2.85;;
609;SDS011;292;48.800;9.216;2023-11-22T03:27:35;8.05;;;4.07;;
609;SDS011;292;48.800;9.216;2023-11-22T03:30:02;6.13;;;3.13;;
609;SDS011;292;48.800;9.216;2023-11-22T03:32:31;6.80;;;3.53;;
609;SDS011;292;48.800;9.216;2023-11-22T03:35:02;5.35;;;3.20;;
609;SDS011;292;48.800;9.216;2023-11-22T03:37:29;4.00;;;2.75;;
609;SDS011;292;48.800;9.216;2023-11-22T03:39:56;6.53;;;3.53;;
609;SDS011;292;48.800;9.216;2023-11-22T03:42:23;6.75;;;3.45;;
609;SDS011;292;48.800;9.216;2023-11-22T03:44:51;6.32;;;3.88;;
609;SDS011;292;48.800;9.216;2023-11-22T03:47:20;5.95;;;3.20;;
609;SDS011;292;48.800;9.216;2023-11-22T03:49:49;5.90;;;3.70;;
609;SDS011;292;48.800;9.216;2023-11-22T03:52:16;6.72;;;2.92;;
609;SDS011;292;48.800;9.216;2023-11-22T03:54:43;5.88;;;3.10;;
609;SDS011;292;48.800;9.216;2023-11-22T03:57:10;7.28;;;3.50;;
609;SDS011;292;48.800;9.216;2023-11-22T03:59:37;5.03;;;2.92;;
609;SDS011;292;48.800;9.216;2023-11-22T04:02:04;6.20;;;3.38;;
609;SDS011;292;48.800;9.216;2023-11-22T04:04:32;7.72;;;3.83;;
609;SDS011;292;48.800;9.216;2023-11-22T04:07:01;7.57;;;3.75;;
609;SDS011;292;48.800;9.216;2023-11-22T04:09:28;4.43;;;2.88;;
609;SDS011;292;48.800;9.216;2023-11-22T04:11:55;9.27;;;4.32;;
609;SDS011;292;48.800;9.216;2023-11-22T04:14:23;6.70;;;3.58;;
609;SDS011;292;48.800;9.216;2023-11-22T04:16:52;5.82;;;3.88;;
609;SDS011;292;48.800;9.216;2023-11-22T04:19:19;8.27;;;4.25;;
609;SDS011;292;48.800;9.216;2023-11-22T04:21:46;6.57;;;3.80;;
609;SDS011;292;48.800;9.216;2023-11-22T04:24:14;5.55;;;3.50;;
609;SDS011;292;48.800;9.216;2023-11-22T04:26:42;7.10;;;4.13;;
609;SDS011;292;48.800;9.216;2023-11-22T04:29:09;5.25;;;3.33;;
609;SDS011;292;48.800;9.216;2023-11-22T04:31:36;7.55;;;3.42;;
609;SDS011;292;48.800;9.216;2023-11-22T04:34:03;8.45;;;3.88;;
609;SDS011;292;48.800;9.216;2023-11-22T04:36:31;7.65;;;3.53;;
609;SDS011;292;48.800;9.216;2023-11-22T04:38:58;6.63;;;3.67;;
609;SDS011;292;48.800;9.216;2023-11-22T04:41:27;6.65;;;3.15;;
609;SDS011;292;48.800;9.216;2023-11-22T04:43:53;7.28;;;3.83;;
609;SDS011;292;48.800;9.216;2023-11-22T04:46:20;7.00;;;3.80;;
609;SDS011;292;48.800;9.216;2023-11-22T04:48:50;6.47;;;3.50;;
609;SDS011;292;48.800;9.216;2023-11-22T04:51:17;10.57;;;3.83;;
609;SDS011;292;48.800;9.216;2023-11-22T04:53:44;5.60;;;3.65;;
609;SDS011;292;48.800;9.216;2023-11-22T04:56:11;7.03;;;3.65;;
609;SDS011;292;48.800;9.216;2023-11-22T04:58:40;6.70;;;3.72;;
609;SDS011;292;48.800;9.216;2023-11-22T05:01:07;6.25;;;3.50;;
609;SDS011;292;48.800;9.216;2023-11-22T05:03:35;6.78;;;3.53;;
609;SDS011;292;48.800;9.216;2023-11-22T05:06:03;6.80;;;3.58;;
609;SDS011;292;48.800;9.216;2023-11-22T05:08:30;6.68;;;3.55;;
609;SDS011;292;48.800;9.216;2023-11-22T05:10:57;5.43;;;2.88;;
609;SDS011;292;48.800;9.216;2023-11-22T05:13:24;5.78;;;3.22;;
609;SDS011;292;48.800;9.216;2023-11-22T05:15:53;8.25;;;3.85;;
609;SDS011;292;48.800;9.216;2023-11-22T05:18:20;4.93;;;3.10;;
609;SDS011;292;48.800;9.216;2023-11-22T05:20:47;8.88;;;4.18;;
609;SDS011;292;48.800;9.216;2023-11-22T05:23:15;7.80;;;3.83;;
609;SDS011;292;48.800;9.216;2023-11-22T05:25:42;9.70;;;3.33;;
609;SDS011;292;48.800;9.216;2023-11-22T05:28:10;6.18;;;2.90;;
609;SDS011;292;48.800;9.216;2023-11-22T05:30:38;6.78;;;3.90;;
609;SDS011;292;48.800;9.216;2023-11-22T05:33:06;6.50;;;3.35;;
609;SDS011;292;48.800;9.216;2023-11-22T05:35:33;4.97;;;3.25;;
609;SDS011;292;48.800;9.216;2023-11-22T05:38:00;6.38;;;3.22;;
609;SDS011;292;48.800;9.216;2023-11-22T05:40:28;4.88;;;2.90;;
609;SDS011;292;48.800;9.216;2023-11-22T05:42:55;11.80;;;3.25;;
609;SDS011;292;48.800;9.216;2023-11-22T05:45:22;6.57;;;3.47;;
609;SDS011;292;48.800;9.216;2023-11-22T05:47:50;6.65;;;2.95;;
609;SDS011;292;48.800;9.216;2023-11-22T05:50:18;8.02;;;4.22;;
609;SDS011;292;48.800;9.216;2023-11-22T05:52:45;8.27;;;4.25;;
609;SDS011;292;48.800;9.216;2023-11-22T05:55:12;6.55;;;3.15;;
609;SDS011;292;48.800;9.216;2023-11-22T05:57:40;9.75;;;3.67;;
609;SDS011;292;48.800;9.216;2023-11-22T06:00:08;5.50;;;3.03;;
609;SDS011;292;48.800;9.216;2023-11-22T06:02:35;6.63;;;3.72;;
609;SDS011;292;48.800;9.216;2023-11-22T06:05:04;6.55;;;3.58;;
609;SDS011;292;48.800;9.216;2023-11-22T06:07:33;5.95;;;3.60;;
609;SDS011;292;48.800;9.216;2023-11-22T06:10:00;6.55;;;3.13;;
609;SDS011;292;48.800;9.216;2023-11-22T06:12:28;5.88;;;3.38;;
609;SDS011;292;48.800;9.216;2023-11-22T06:14:55;7.18;;;3.25;;
609;SDS011;292;48.800;9.216;2023-11-22T06:17:22;5.00;;;3.03;;
609;SDS011;292;48.800;9.216;2023-11-22T06:19:49;4.97;;;3.08;;
609;SDS011;292;48.800;9.216;2023-11-22T06:22:16;9.98;;;3.63;;
609;SDS011;292;48.800;9.216;2023-11-22T06:24:45;4.38;;;2.70;;
609;SDS011;292;48.800;9.216;2023-11-22T06:27:13;5.25;;;2.80;;
609;SDS011;292;48.800;9.216;2023-11-22T06:29:40;5.40;;;2.95;;
609;SDS011;292;48.800;9.216;2023-11-22T06:32:08;6.45;;;3.00;;
609;SDS011;292;48.800;9.216;2023-11-22T06:34:35;5.68;;;3.13;;
609;SDS011;292;48.800;9.216;2023-11-22T06:37:03;7.65;;;3.25;;
609;SDS011;292;48.800;9.216;2023-11-22T06:39:33;6.28;;;2.95;;
609;SDS011;292;48.800;9.216;2023-11-22T06:42:02;5.45;;;3.22;;
609;SDS011;292;48.800;9.216;2023-11-22T06:44:29;5.25;;;2.65;;
609;SDS011;292;48.800;9.216;2023-11-22T06:46:56;5.88;;;3.33;;
609;SDS011;292;48.800;9.216;2023-11-22T06:49:23;4.40;;;2.58;;
609;SDS011;292;48.800;9.216;2023-11-22T06:51:50;5.68;;;3.00;;
609;SDS011;292;48.800;9.216;2023-11-22T06:54:18;6.30;;;3.22;;
609;SDS011;292;48.800;9.216;2023-11-22T06:56:46;5.60;;;3.00;;
609;SDS011;292;48.800;9.216;2023-11-22T06:59:14;6.63;;;3.20;;
609;SDS011;292;48.800;9.216;2023-11-22T07:01:41;6.80;;;3.50;;
609;SDS011;292;48.800;9.216;2023-11-22T07:04:08;6.70;;;3.63;;
609;SDS011;292;48.800;9.216;2023-11-22T07:06:35;6.03;;;3.40;;
609;SDS011;292;48.800;9.216;2023-11-22T07:09:03;6.80;;;2.75;;
609;SDS011;292;48.800;9.216;2023-11-22T07:11:30;4.55;;;2.42;;
609;SDS011;292;48.800;9.216;2023-11-22T07:13:57;6.03;;;2.88;;
609;SDS011;292;48.800;9.216;2023-11-22T07:16:25;6.32;;;2.30;;
609;SDS011;292;48.800;9.216;2023-11-22T07:18:53;6.10;;;2.50;;
609;SDS011;292;48.800;9.216;2023-11-22T07:21:19;7.78;;;2.95;;
609;SDS011;292;48.800;9.216;2023-11-22T07:23:47;7.68;;;3.13;;
609;SDS011;292;48.800;9.216;2023-11-22T07:26:14;3.80;;;2.38;;
609;SDS011;292;48.800;9.216;2023-11-22T07:28:41;7.82;;;3.17;;
609;SDS011;292;48.800;9.216;2023-11-22T07:31:08;3.53;;;2.35;;
609;SDS011;292;48.800;9.216;2023-11-22T07:33:38;6.32;;;2.83;;
609;SDS011;292;48.800;9.216;2023-11-22T07:36:05;4.25;;;2.55;;
609;SDS011;292;48.800;9.216;2023-11-22T07:38:32;6.18;;;2.78;;
609;SDS011;292;48.800;9.216;2023-11-22T07:40:59;7.18;;;3.10;;
609;SDS011;292;48.800;9.216;2023-11-22T07:43:26;6.65;;;2.35;;
609;SDS011;292;48.800;9.216;2023-11-22T07:45:53;5.53;;;2.72;;
609;SDS011;292;48.800;9.216;2023-11-22T07:48:20;4.57;;;2.08;;
609;SDS011;292;48.800;9.216;2023-11-22T07:50:49;8.55;;;3.22;;
609;SDS011;292;48.800;9.216;2023-11-22T07:53:18;4.07;;;2.60;;
609;SDS011;292;48.800;9.216;2023-11-22T07:55:45;4.72;;;2.72;;
609;SDS011;292;48.800;9.216;2023-11-22T07:58:12;8.70;;;3.03;;
609;SDS011;292;48.800;9.216;2023-11-22T08:00:40;7.15;;;3.13;;
609;SDS011;292;48.800;9.216;2023-11-22T08:03:08;9.07;;;2.80;;
609;SDS011;292;48.800;9.216;2023-11-22T08:05:35;6.78;;;2.90;;
609;SDS011;292;48.800;9.216;2023-11-22T08:08:06;6.90;;;2.85;;
609;SDS011;292;48.800;9.216;2023-11-22T08:10:34;5.20;;;3.00;;
609;SDS011;292;48.800;9.216;2023-11-22T08:13:01;9.18;;;3.70;;
609;SDS011;292;48.800;9.216;2023-11-22T08:15:28;4.50;;;2.47;;
609;SDS011;292;48.800;9.216;2023-11-22T08:17:56;7.18;;;3.38;;
609;SDS011;292;48.800;9.216;2023-11-22T08:20:25;5.05;;;2.65;;
609;SDS011;292;48.800;9.216;2023-11-22T08:22:52;5.07;;;2.85;;
609;SDS011;292;48.800;9.216;2023-11-22T08:25:20;5.07;;;2.92;;
609;SDS011;292;48.800;9.216;2023-11-22T08:27:48;6.38;;;3.00;;
609;SDS011;292;48.800;9.216;2023-11-22T08:30:15;6.80;;;2.80;;
609;SDS011;292;48.800;9.216;2023-11-22T08:32:43;7.20;;;3.10;;
609;SDS011;292;48.800;9.216;2023-11-22T08:35:16;10.57;;;3.92;;
609;SDS011;292;48.800;9.216;2023-11-22T08:37:43;7.22;;;2.92;;
609;SDS011;292;48.800;9.216;2023-11-22T08:40:12;6.07;;;3.20;;
609;SDS011;292;48.800;9.216;2023-11-22T08:42:42;10.95;;;3.00;;
609;SDS011;292;48.800;9.216;2023-11-22T08:45:10;13.18;;;3.75;;
609;SDS011;292;48.800;9.216;2023-11-22T08:47:38;4.10;;;2.63;;
609;SDS011;292;48.800;9.216;2023-11-22T08:50:06;6.53;;;3.72;;
609;SDS011;292;48.800;9.216;2023-11-22T08:52:36;6.53;;;3.30;;
609;SDS011;292;48.800;9.216;2023-11-22T08:55:03;6.28;;;3.78;;
609;SDS011;292;48.800;9.216;2023-11-22T08:57:32;6.55;;;3.35;;
609;SDS011;292;48.800;9.216;2023-11-22T09:00:01;9.13;;;3.25;;
609;SDS011;292;48.800;9.216;2023-11-22T09:02:34;5.93;;;3.42;;
609;SDS011;292;48.800;9.216;2023-11-22T09:05:01;6.60;;;3.65;;
609;SDS011;292;48.800;9.216;2023-11-22T09:07:30;4.97;;;2.75;;
609;SDS011;292;48.800;9.216;2023-11-22T09:09:58;5.30;;;3.20;;
609;SDS011;292;48.800;9.216;2023-11-22T09:12:25;8.98;;;3.42;;
609;SDS011;292;48.800;9.216;2023-11-22T09:14:55;5.50;;;3.30;;
609;SDS011;292;48.800;9.216;2023-11-22T09:17:23;7.55;;;3.75;;
609;SDS011;292;48.800;9.216;2023-11-22T09:19:51;9.40;;;3.55;;
609;SDS011;292;48.800;9.216;2023-11-22T09:22:23;5.80;;;3.00;;
609;SDS011;292;48.800;9.216;2023-11-22T09:24:51;8.88;;;3.50;;
609;SDS011;292;48.800;9.216;2023-11-22T09:27:19;6.45;;;3.35;;
609;SDS011;292;48.800;9.216;2023-11-22T09:29:47;19.58;;;3.75;;
609;SDS011;292;48.800;9.216;2023-11-22T09:32:16;9.10;;;3.83;;
609;SDS011;292;48.800;9.216;2023-11-22T09:34:44;6.80;;;3.60;;
609;SDS011;292;48.800;9.216;2023-11-22T09:37:12;7.70;;;3.83;;
609;SDS011;292;48.800;9.216;2023-11-22T09:39:39;6.80;;;3.70;;
609;SDS011;292;48.800;9.216;2023-11-22T09:42:06;6.20;;;3.72;;
609;SDS011;292;48.800;9.216;2023-11-22T09:44:34;7.00;;;3.42;;
609;SDS011;292;48.800;9.216;2023-11-22T09:47:01;10.48;;;3.95;;
609;SDS011;292;48.800;9.216;2023-11-22T09:49:30;10.68;;;3.95;;
609;SDS011;292;48.800;9.216;2023-11-22T09:52:01;8.55;;;3.83;;
609;SDS011;292;48.800;9.216;2023-11-22T09:54:30;11.18;;;4.45;;
609;SDS011;292;48.800;9.216;2023-11-22T09:56:59;16.85;;;3.90;;
609;SDS011;292;48.800;9.216;2023-11-22T09:59:28;12.05;;;3.97;;
609;SDS011;292;48.800;9.216;2023-11-22T10:01:57;5.43;;;2.95;;
609;SDS011;292;48.800;9.216;2023-11-22T10:04:25;8.18;;;3.85;;
609;SDS011;292;48.800;9.216;2023-11-22T10:06:55;9.80;;;4.18;;
609;SDS011;292;48.800;9.216;2023-11-22T10:09:25;8.55;;;3.58;;
609;SDS011;292;48.800;9.216;2023-11-22T10:11:57;7.25;;;3.90;;
609;SDS011;292;48.800;9.216;2023-11-22T10:14:24;8.02;;;4.18;;
609;SDS011;292;48.800;9.216;2023-11-22T10:16:58;8.45;;;4.38;;
609;SDS011;292;48.800;9.216;2023-11-22T10:19:26;11.45;;;5.25;;
609;SDS011;292;48.800;9.216;2023-11-22T10:22:03;13.63;;;4.30;;
609;SDS011;292;48.800;9.216;2023-11-22T10:24:33;8.63;;;4.32;;
609;SDS011;292;48.800;9.216;2023-11-22T10:27:00;8.95;;;3.78;;
609;SDS011;292;48.800;9.216;2023-11-22T10:29:28;8.57;;;4.75;;
609;SDS011;292;48.800;9.216;2023-11-22T10:31:55;9.65;;;3.85;;
609;SDS011;292;48.800;9.216;2023-11-22T10:34:23;11.02;;;5.05;;
609;SDS011;292;48.800;9.216;2023-11-22T10:36:51;10.50;;;4.60;;
609;SDS011;292;48.800;9.216;2023-11-22T10:39:19;7.93;;;4.05;;
609;SDS011;292;48.800;9.216;2023-11-22T10:41:48;17.50;;;3.70;;
609;SDS011;292;48.800;9.216;2023-11-22T10:44:16;12.07;;;4.13;;
609;SDS011;292;48.800;9.216;2023-11-22T10:46:46;8.15;;;4.07;;
609;SDS011;292;48.800;9.216;2023-11-22T10:49:14;8.50;;;4.25;;
609;SDS011;292;48.800;9.216;2023-11-22T10:51:41;8.52;;;4.35;;
609;SDS011;292;48.800;9.216;2023-11-22T10:54:11;8.68;;;4.32;;
609;SDS011;292;48.800;9.216;2023-11-22T10:56:39;8.57;;;4.68;;
609;SDS011;292;48.800;9.216;2023-11-22T10:59:12;6.68;;;3.92;;
609;SDS011;292;48.800;9.216;2023-11-22T11:01:42;6.72;;;3.92;;
609;SDS011;292;48.800;9.216;2023-11-22T11:04:15;7.65;;;4.07;;
609;SDS011;292;48.800;9.216;2023-11-22T11:06:47;8.55;;;4.10;;
609;SDS011;292;48.800;9.216;2023-11-22T11:09:18;9.82;;;5.53;;
609;SDS011;292;48.800;9.216;2023-11-22T11:11:49;10.93;;;5.35;;
609;SDS011;292;48.800;9.216;2023-11-22T11:14:18;10.55;;;5.20;;
609;SDS011;292;48.800;9.216;2023-11-22T11:16:45;8.45;;;4.03;;
609;SDS011;292;48.800;9.216;2023-11-22T11:19:15;7.25;;;4.00;;
609;SDS011;292;48.800;9.216;2023-11-22T11:21:43;8.77;;;5.30;;
609;SDS011;292;48.800;9.216;2023-11-22T11:24:11;8.07;;;4.40;;
609;SDS011;292;48.800;9.216;2023-11-22T11:26:40;8.20;;;4.82;;
609;SDS011;292;48.800;9.216;2023-11-22T11:29:07;9.73;;;4.45;;
609;SDS011;292;48.800;9.216;2023-11-22T11:31:59;9.55;;;4.28;;
609;SDS011;292;48.800;9.216;2023-11-22T11:34:28;9.85;;;5.15;;
609;SDS011;292;48.800;9.216;2023-11-22T11:36:55;10.45;;;5.20;;
609;SDS011;292;48.800;9.216;2023-11-22T11:39:25;9.27;;;4.95;;
609;SDS011;292;48.800;9.216;2023-11-22T11:42:07;10.73;;;4.25;;
609;SDS011;292;48.800;9.216;2023-11-22T11:44:36;11.65;;;5.70;;
609;SDS011;292;48.800;9.216;2023-11-22T11:47:10;9.75;;;5.05;;
609;SDS011;292;48.800;9.216;2023-11-22T11:49:39;8.25;;;4.55;;
609;SDS011;292;48.800;9.216;2023-11-22T11:52:07;11.45;;;4.93;;
609;SDS011;292;48.800;9.216;2023-11-22T11:54:34;9.90;;;4.88;;
609;SDS011;292;48.800;9.216;2023-11-22T11:57:04;9.93;;;4.72;;
609;SDS011;292;48.800;9.216;2023-11-22T11:59:32;10.93;;;4.95;;
609;SDS011;292;48.800;9.216;2023-11-22T12:02:04;7.75;;;4.55;;
609;SDS011;292;48.800;9.216;2023-11-22T12:04:33;9.40;;;4.90;;
609;SDS011;292;48.800;9.216;2023-11-22T12:07:00;7.53;;;4.20;;
609;SDS011;292;48.800;9.216;2023-11-22T12:09:27;11.50;;;4.90;;
609;SDS011;292;48.800;9.216;2023-11-22T12:11:55;10.88;;;5.35;;
609;SDS011;292;48.800;9.216;2023-11-22T12:14:22;8.02;;;5.03;;
609;SDS011;292;48.800;9.216;2023-11-22T12:16:50;8.43;;;4.82;;
609;SDS011;292;48.800;9.216;2023-11-22T12:19:24;8.00;;;4.20;;
609;SDS011;292;48.800;9.216;2023-11-22T12:21:55;10.40;;;4.63;;
609;SDS011;292;48.800;9.216;2023-11-22T12:24:24;8.00;;;4.15;;
609;SDS011;292;48.800;9.216;2023-11-22T12:26:51;10.90;;;5.28;;
609;SDS011;292;48.800;9.216;2023-11-22T12:29:23;9.32;;;5.05;;
609;SDS011;292;48.800;9.216;2023-11-22T12:31:50;14.18;;;5.32;;
609;SDS011;292;48.800;9.216;2023-11-22T12:34:20;8.02;;;4.80;;
609;SDS011;292;48.800;9.216;2023-11-22T12:36:50;9.57;;;4.40;;
609;SDS011;292;48.800;9.216;2023-11-22T12:39:19;9.98;;;4.43;;
609;SDS011;292;48.800;9.216;2023-11-22T12:41:48;8.43;;;4.47;;
609;SDS011;292;48.800;9.216;2023-11-22T12:44:16;9.52;;;4.60;;
609;SDS011;292;48.800;9.216;2023-11-22T12:46:47;9.43;;;5.10;;
609;SDS011;292;48.800;9.216;2023-11-22T12:49:20;10.02;;;5.10;;
609;SDS011;292;48.800;9.216;2023-11-22T12:51:50;9.90;;;5.05;;
609;SDS011;292;48.800;9.216;2023-11-22T12:54:17;14.77;;;5.20;;
609;SDS011;292;48.800;9.216;2023-11-22T12:56:47;8.60;;;5.00;;
609;SDS011;292;48.800;9.216;2023-11-22T12:59:16;9.52;;;4.78;;
609;SDS011;292;48.800;9.216;2023-11-22T13:01:44;8.85;;;4.93;;
609;SDS011;292;48.800;9.216;2023-11-22T13:04:11;8.93;;;4.03;;
609;SDS011;292;48.800;9.216;2023-11-22T13:06:39;8.48;;;4.20;;
609;SDS011;292;48.800;9.216;2023-11-22T13:09:08;6.93;;;4.30;;
609;SDS011;292;48.800;9.216;2023-11-22T13:11:40;9.70;;;4.78;;
609;SDS011;292;48.800;9.216;2023-11-22T13:14:08;8.35;;;4.15;;
609;SDS011;292;48.800;9.216;2023-11-22T13:16:35;9.25;;;4.90;;
609;SDS011;292;48.800;9.216;2023-11-22T13:19:04;18.65;;;4.72;;
609;SDS011;292;48.800;9.216;2023-11-22T13:21:31;9.40;;;4.47;;
609;SDS011;292;48.800;9.216;2023-11-22T13:23:58;12.30;;;4.72;;
609;SDS011;292;48.800;9.216;2023-11-22T13:26:27;10.65;;;4.63;;
609;SDS011;292;48.800;9.216;2023-11-22T13:28:54;10.57;;;4.60;;
609;SDS011;292;48.800;9.216;2023-11-22T13:31:23;8.05;;;4.13;;
609;SDS011;292;48.800;9.216;2023-11-22T13:33:50;7.80;;;4.22;;
609;SDS011;292;48.800;9.216;2023-11-22T13:36:17;6.78;;;3.85;;
609;SDS011;292;48.800;9.216;2023-11-22T13:38:44;7.25;;;4.13;;
609;SDS011;292;48.800;9.216;2023-11-22T13:41:11;10.90;;;4.22;;
609;SDS011;292;48.800;9.216;2023-11-22T13:43:39;10.35;;;5.07;;
609;SDS011;292;48.800;9.216;2023-11-22T13:46:16;9.30;;;4.65;;
609;SDS011;292;48.800;9.216;2023-11-22T13:48:43;10.07;;;4.47;;
609;SDS011;292;48.800;9.216;2023-11-22T13:51:10;11.68;;;5.10;;
609;SDS011;292;48.800;9.216;2023-11-22T13:53:37;10.02;;;4.85;;
609;SDS011;292;48.800;9.216;2023-11-22T13:56:08;8.38;;;4.75;;
609;SDS011;292;48.800;9.216;2023-11-22T13:58:35;9.25;;;4.38;;
609;SDS011;292;48.800;9.216;2023-11-22T14:01:05;10.60;;;4.18;;
609;SDS011;292;48.800;9.216;2023-11-22T14:03:36;8.55;;;4.40;;
609;SDS011;292;48.800;9.216;2023-11-22T14:06:04;9.65;;;5.05;;
609;SDS011;292;48.800;9.216;2023-11-22T14:08:31;13.82;;;5.15;;
609;SDS011;292;48.800;9.216;2023-11-22T14:10:59;9.20;;;4.75;;
609;SDS011;292;48.800;9.216;2023-11-22T14:13:26;10.60;;;4.88;;
609;SDS011;292;48.800;9.216;2023-11-22T14:15:53;10.48;;;4.40;;
609;SDS011;292;48.800;9.216;2023-11-22T14:18:21;7.47;;;4.45;;
609;SDS011;292;48.800;9.216;2023-11-22T14:20:51;10.32;;;4.65;;
609;SDS011;292;48.800;9.216;2023-11-22T14:23:18;9.50;;;4.57;;
609;SDS011;292;48.800;9.216;2023-11-22T14:25:46;6.38;;;4.07;;
609;SDS011;292;48.800;9.216;2023-11-22T14:28:12;8.85;;;4.45;;
609;SDS011;292;48.800;9.216;2023-11-22T14:30:40;11.73;;;4.20;;
609;SDS011;292;48.800;9.216;2023-11-22T14:33:09;11.68;;;4.82;;
609;SDS011;292;48.800;9.216;2023-11-22T14:35:38;9.07;;;4.28;;
609;SDS011;292;48.800;9.216;2023-11-22T14:38:05;8.13;;;4.85;;
609;SDS011;292;48.800;9.216;2023-11-22T14:40:32;11.38;;;4.45;;
609;SDS011;292;48.800;9.216;2023-11-22T14:43:00;10.80;;;4.85;;
609;SDS011;292;48.800;9.216;2023-11-22T14:45:27;10.05;;;4.78;;
609;SDS011;292;48.800;9.216;2023-11-22T14:47:55;8.38;;;4.45;;
609;SDS011;292;48.800;9.216;2023-11-22T14:50:22;8.73;;;4.28;;
609;SDS011;292;48.800;9.216;2023-11-22T14:52:53;9.18;;;4.60;;
609;SDS011;292;48.800;9.216;2023-11-22T14:55:21;9.18;;;3.67;;
609;SDS011;292;48.800;9.216;2023-11-22T14:57:50;8.23;;;4.55;;
609;SDS011;292;48.800;9.216;2023-11-22T15:00:19;8.88;;;5.00;;
609;SDS011;292;48.800;9.216;2023-11-22T15:02:46;8.15;;;4.40;;
609;SDS011;292;48.800;9.216;2023-11-22T15:05:17;8.50;;;4.20;;
609;SDS011;292;48.800;9.216;2023-11-22T15:07:44;8.60;;;4.20;;
609;SDS011;292;48.800;9.216;2023-11-22T15:10:21;8.48;;;4.50;;
609;SDS011;292;48.800;9.216;2023-11-22T15:12:51;11.68;;;4.97;;
609;SDS011;292;48.800;9.216;2023-11-22T15:15:20;8.50;;;4.40;;
609;SDS011;292;48.800;9.216;2023-11-22T15:17:50;9.60;;;4.10;;
609;SDS011;292;48.800;9.216;2023-11-22T15:20:17;10.18;;;4.30;;
609;SDS011;292;48.800;9.216;2023-11-22T15:22:45;10.43;;;4.90;;
609;SDS011;292;48.800;9.216;2023-11-22T15:25:12;8.43;;;4.70;;
609;SDS011;292;48.800;9.216;2023-11-22T15:27:41;11.57;;;5.25;;
609;SDS011;292;48.800;9.216;2023-11-22T15:30:10;8.60;;;4.70;;
609;SDS011;292;48.800;9.216;2023-11-22T15:32:38;7.60;;;4.40;;
609;SDS011;292;48.800;9.216;2023-11-22T15:35:05;10.75;;;4.28;;
609;SDS011;292;48.800;9.216;2023-11-22T15:37:33;6.82;;;3.83;;
609;SDS011;292;48.800;9.216;2023-11-22T15:40:00;8.70;;;4.95;;
609;SDS011;292;48.800;9.216;2023-11-22T15:42:29;8.95;;;4.55;;
609;SDS011;292;48.800;9.216;2023-11-22T15:44:57;10.70;;;5.65;;
609;SDS011;292;48.800;9.216;2023-11-22T15:47:27;9.80;;;4.88;;